Time;durP1;ratioP1;P1;durP2;ratioP2;P2;SDS_P1;SDS_P2;PMS_P1;PMS_P2;Temp;Humidity;BMP_temperature;BMP_pressure;BME280_temperature;BME280_humidity;BME280_pressure;Samples;Min_cycle;Max_cycle;Signal;HPM_P1;HPM_P2
2022/03/17 00:00:07;;;;;;;31.70;19.92;;;;;;;4.83;100.00;93660.91;4989919;28;20488;-84
2022/03/17 00:02:34;;;;;;;29.88;18.70;;;;;;;4.73;100.00;93643.28;4990367;28;20054;-84
2022/03/17 00:05:02;;;;;;;25.45;17.35;;;;;;;4.81;100.00;93653.41;4990234;28;20124;-85
2022/03/17 00:07:29;;;;;;;28.38;18.00;;;;;;;4.65;100.00;93630.56;4990030;28;20495;-85
2022/03/17 00:09:56;;;;;;;26.05;16.92;;;;;;;4.75;100.00;93655.81;4990332;28;20046;-85
2022/03/17 00:12:25;;;;;;;28.35;16.95;;;;;;;5.15;100.00;93705.06;4990135;28;20054;-84
2022/03/17 00:14:52;;;;;;;26.48;17.45;;;;;;;4.75;100.00;93638.00;4990369;28;20054;-84
2022/03/17 00:17:19;;;;;;;26.52;16.80;;;;;;;5.16;100.00;93699.00;4990010;28;20133;-84
2022/03/17 00:19:47;;;;;;;23.88;16.67;;;;;;;4.73;100.00;93642.47;4989925;28;20107;-85
2022/03/17 00:22:16;;;;;;;24.77;16.13;;;;;;;5.12;100.00;93696.94;4972599;28;20385;-85
2022/03/17 00:24:43;;;;;;;26.70;16.35;;;;;;;5.11;100.00;93702.97;4971239;28;20075;-85
2022/03/17 00:27:10;;;;;;;24.73;14.93;;;;;;;5.08;100.00;93694.72;4971085;28;20061;-84
2022/03/17 00:29:40;;;;;;;29.92;17.20;;;;;;;4.75;100.00;93648.97;4970673;28;20106;-85
2022/03/17 00:32:09;;;;;;;45.95;24.95;;;;;;;4.47;100.00;93618.00;4970439;28;20047;-84
2022/03/17 00:35:35;;;;;;;41.70;23.52;;;;;;;4.54;100.00;93613.88;4970241;28;20049;-84
2022/03/17 00:37:24;;;;;;;39.85;22.35;;;;;;;5.10;100.00;93703.94;4969834;28;20055;-84
2022/03/17 00:39:51;;;;;;;34.67;21.38;;;;;;;4.88;100.00;93665.50;4970607;28;20055;-84
2022/03/17 00:45:04;;;;;;;33.63;20.83;;;;;;;4.70;100.00;93635.94;4970679;28;20066;-84
2022/03/17 00:47:31;;;;;;;33.45;21.10;;;;;;;4.81;100.00;93648.31;4970145;28;20061;-84
2022/03/17 00:49:58;;;;;;;30.30;20.33;;;;;;;4.53;100.00;93618.16;4970385;28;20047;-84
2022/03/17 00:52:25;;;;;;;30.50;19.63;;;;;;;5.08;100.00;93684.53;4970289;28;20165;-83
2022/03/17 00:54:51;;;;;;;34.10;22.88;;;;;;;4.69;100.00;93621.66;4970563;28;20051;-83
2022/03/17 00:57:18;;;;;;;38.40;25.00;;;;;;;4.61;100.00;93612.28;4970954;28;20050;-83
2022/03/17 00:59:45;;;;;;;34.85;23.33;;;;;;;5.16;100.00;93691.38;4970664;28;21063;-84
2022/03/17 01:02:13;;;;;;;58.80;33.30;;;;;;;4.69;100.00;93616.56;4971043;28;20055;-84
2022/03/17 01:04:40;;;;;;;56.15;31.85;;;;;;;4.61;100.00;93607.19;4970410;28;20054;-84
2022/03/17 01:07:07;;;;;;;53.92;28.23;;;;;;;4.80;100.00;93638.31;4970602;28;20105;-84
2022/03/17 01:09:34;;;;;;;48.28;29.13;;;;;;;4.82;100.00;93647.38;4972382;28;20047;-83
2022/03/17 01:12:02;;;;;;;48.58;28.77;;;;;;;4.74;100.00;93633.88;4973780;28;20051;-84
2022/03/17 01:14:29;;;;;;;45.20;27.13;;;;;;;4.53;100.00;93612.28;4973478;28;20046;-84
2022/03/17 01:16:56;;;;;;;45.80;29.25;;;;;;;5.17;100.00;93702.31;4973412;28;20423;-83
2022/03/17 01:19:26;;;;;;;45.88;27.85;;;;;;;4.46;100.00;93607.06;4973224;28;20058;-84
2022/03/17 01:21:53;;;;;;;44.22;29.80;;;;;;;4.64;100.00;93637.38;4989349;28;20050;-84
2022/03/17 01:24:20;;;;;;;97.22;50.95;;;;;;;5.00;100.00;93692.19;4993991;28;20055;-84
2022/03/17 01:26:48;;;;;;;126.43;62.92;;;;;;;4.96;100.00;93685.84;5005025;28;20054;-85
2022/03/17 01:29:15;;;;;;;93.90;49.40;;;;;;;4.55;100.00;93618.78;5001476;28;20081;-84
2022/03/17 01:31:42;;;;;;;55.60;33.58;;;;;;;4.54;100.00;93621.53;4993262;28;20069;-83
2022/03/17 01:34:09;;;;;;;53.03;31.40;;;;;;;4.50;100.00;93633.75;4990694;28;20095;-83
2022/03/17 01:36:38;;;;;;;44.88;30.35;;;;;;;4.45;100.00;93630.91;4993273;28;20042;-84
2022/03/17 01:39:05;;;;;;;44.88;29.77;;;;;;;4.78;100.00;93686.03;4993374;28;20081;-83
2022/03/17 01:41:32;;;;;;;44.88;29.58;;;;;;;4.45;100.00;93656.34;4992725;28;20050;-83
2022/03/17 01:44:01;;;;;;;37.75;25.98;;;;;;;4.38;100.00;93685.91;4988746;28;20480;-84
2022/03/17 01:46:30;;;;;;;36.78;26.00;;;;;;;4.07;100.00;93694.19;4991689;28;20050;-84
2022/03/17 01:48:58;;;;;;;35.50;23.15;;;;;;;3.77;100.00;93693.78;4984982;28;20415;-83
2022/03/17 01:51:26;;;;;;;71.63;43.75;;;;;;;3.35;100.00;93640.34;4992513;28;20046;-83
2022/03/17 01:53:56;;;;;;;37.10;25.35;;;;;;;3.54;100.00;93671.50;4992182;28;20054;-84
2022/03/17 01:56:25;;;;;;;55.67;34.15;;;;;;;3.58;100.00;93665.16;4992467;28;20087;-84
2022/03/17 01:59:01;;;;;;;28.40;19.20;;;;;;;3.31;100.00;93644.13;4993167;28;20058;-86
2022/03/17 02:01:29;;;;;;;34.50;23.27;;;;;;;3.39;100.00;93705.13;4992733;28;20133;-84
2022/03/17 02:03:56;;;;;;;26.50;19.35;;;;;;;3.56;100.00;93705.97;4984851;28;20054;-83
2022/03/17 02:06:23;;;;;;;14.90;11.02;;;;;;;2.93;100.00;93631.78;4992326;28;20054;-82
2022/03/17 02:08:50;;;;;;;18.20;13.00;;;;;;;3.39;100.00;93712.75;4992805;28;20051;-83
2022/03/17 02:14:03;;;;;;;11.25;7.70;;;;;;;3.29;100.00;93715.38;4992045;28;20061;-83
2022/03/17 02:16:30;;;;;;;13.48;9.35;;;;;;;3.19;100.00;93692.66;4992910;28;20093;-83
2022/03/17 02:18:58;;;;;;;8.82;6.72;;;;;;;2.72;100.00;93640.56;4992466;28;20066;-82
2022/03/17 02:21:24;;;;;;;7.97;5.28;;;;;;;2.31;100.00;93589.63;4991621;28;20061;-83
2022/03/17 02:26:38;;;;;;;7.43;5.10;;;;;;;2.25;100.00;93580.84;4992294;28;20066;-83
2022/03/17 02:29:12;;;;;;;6.38;4.55;;;;;;;3.02;100.00;93701.13;4992288;28;20065;-84
2022/03/17 02:31:44;;;;;;;8.88;5.97;;;;;;;2.46;100.00;93641.34;4991970;28;20061;-84
2022/03/17 02:34:14;;;;;;;6.47;4.57;;;;;;;2.46;100.00;93635.50;4991968;28;20057;-84
2022/03/17 02:36:49;;;;;;;5.28;3.33;;;;;;;2.75;100.00;93685.94;4991833;28;20054;-84
2022/03/17 02:39:22;;;;;;;6.43;5.00;;;;;;;2.59;100.00;93648.56;4991878;28;20057;-84
2022/03/17 02:41:54;;;;;;;7.95;4.63;;;;;;;2.61;100.00;93639.09;4980796;28;20416;-83
2022/03/17 02:44:24;;;;;;;6.45;5.20;;;;;;;3.14;100.00;93709.31;4988461;28;20066;-84
2022/03/17 02:46:52;;;;;;;7.47;5.60;;;;;;;2.78;100.00;93656.94;4991447;28;20088;-84
2022/03/17 02:49:21;;;;;;;8.02;5.47;;;;;;;2.89;100.00;93653.31;4991249;28;20608;-84
2022/03/17 02:51:49;;;;;;;8.50;6.00;;;;;;;3.03;100.00;93674.81;4991680;28;20070;-84
2022/03/17 02:54:20;;;;;;;11.32;6.88;;;;;;;3.09;100.00;93686.13;4992708;28;20140;-84
2022/03/17 02:56:46;;;;;;;8.55;5.60;;;;;;;3.54;100.00;93735.81;4991320;28;20046;-82
2022/03/17 02:59:14;;;;;;;8.93;5.43;;;;;;;3.51;100.00;93731.03;4991435;28;20880;-84
2022/03/17 03:01:41;;;;;;;8.32;5.53;;;;;;;3.18;100.00;93670.75;4991538;28;20077;-83
2022/03/17 03:04:07;;;;;;;5.25;4.00;;;;;;;3.48;100.00;93742.28;4991867;28;20128;-83
2022/03/17 03:06:34;;;;;;;6.03;4.28;;;;;;;3.38;100.00;93728.91;4991362;28;20085;-83
2022/03/17 03:09:01;;;;;;;9.30;6.35;;;;;;;3.30;100.00;93714.47;4991596;28;20112;-82
2022/03/17 03:11:29;;;;;;;10.48;8.85;;;;;;;2.94;100.00;93687.47;4991576;28;20054;-82
2022/03/17 03:13:56;;;;;;;15.55;11.80;;;;;;;3.05;100.00;93731.28;4991419;28;20058;-82
2022/03/17 03:16:24;;;;;;;17.17;12.68;;;;;;;2.39;100.00;93678.41;4991209;28;20050;-83
2022/03/17 03:18:51;;;;;;;16.40;13.13;;;;;;;2.73;100.00;93733.47;4991195;28;20073;-83
2022/03/17 03:21:19;;;;;;;18.20;14.15;;;;;;;2.71;100.00;93732.84;4990972;28;20047;-83
2022/03/17 03:23:47;;;;;;;16.45;13.68;;;;;;;2.80;100.00;93721.81;4990989;28;20137;-83
2022/03/17 03:26:15;;;;;;;21.83;15.27;;;;;;;2.70;100.00;93718.56;4990719;28;20146;-84
2022/03/17 03:28:44;;;;;;;18.13;14.10;;;;;;;2.20;100.00;93637.06;4990726;28;20058;-83
2022/03/17 03:31:15;;;;;;;17.17;13.82;;;;;;;2.76;100.00;93729.84;4991360;28;20054;-84
2022/03/17 03:33:43;;;;;;;17.17;13.45;;;;;;;2.69;100.00;93731.38;4990785;28;20484;-83
2022/03/17 03:38:55;;;;;;;14.65;12.20;;;;;;;2.20;100.00;93656.53;4990945;28;20069;-83
2022/03/17 03:41:35;;;;;;;16.48;12.00;;;;;;;2.26;100.00;93669.44;4991067;28;20137;-85
2022/03/17 03:44:14;;;;;;;13.85;10.38;;;;;;;2.57;100.00;93730.81;4990684;28;20057;-85
2022/03/17 03:46:41;;;;;;;13.43;10.70;;;;;;;1.98;100.00;93650.97;4990944;28;20107;-82
2022/03/17 03:49:08;;;;;;;13.13;10.80;;;;;;;2.23;100.00;93686.69;4990523;28;20530;-82
2022/03/17 03:51:35;;;;;;;14.73;10.68;;;;;;;2.14;100.00;93665.53;4990981;28;20488;-82
2022/03/17 03:54:15;;;;;;;12.60;10.23;;;;;;;2.33;100.00;93707.69;4990499;28;20061;-82
2022/03/17 03:56:44;;;;;;;12.32;9.75;;;;;;;2.52;100.00;93716.06;4990558;28;20053;-82
2022/03/17 03:59:15;;;;;;;11.95;8.85;;;;;;;2.60;100.00;93745.75;4990216;28;20165;-82
2022/03/17 04:01:42;;;;;;;20.58;12.63;;;;;;;2.56;100.00;93742.72;4989995;28;20141;-84
2022/03/17 04:04:13;;;;;;;15.95;11.13;;;;;;;2.71;100.00;93754.84;4969177;28;20077;-83
2022/03/17 04:06:42;;;;;;;11.35;9.10;;;;;;;2.54;100.00;93763.16;4969913;28;20055;-83
2022/03/17 04:09:20;;;;;;;21.63;13.27;;;;;;;2.73;100.00;93758.06;4971556;28;20054;-85
2022/03/17 04:11:55;;;;;;;37.00;18.70;;;;;;;2.19;100.00;93692.97;4970578;28;20051;-84
2022/03/17 04:14:35;;;;;;;19.27;11.83;;;;;;;2.14;100.00;93693.44;4970710;28;20476;-85
2022/03/17 04:17:04;;;;;;;13.73;10.23;;;;;;;2.19;100.00;93703.91;4963721;28;20162;-84
2022/03/17 04:19:32;;;;;;;12.20;8.00;;;;;;;2.34;100.00;93743.94;4970876;28;20059;-82
2022/03/17 04:21:59;;;;;;;10.52;7.93;;;;;;;2.17;100.00;93715.16;4970798;28;20143;-81
2022/03/17 04:24:26;;;;;;;12.13;8.63;;;;;;;1.83;100.00;93666.72;4970191;28;20043;-82
2022/03/17 04:26:53;;;;;;;11.30;7.50;;;;;;;2.44;100.00;93780.19;4970708;28;20145;-82
2022/03/17 04:29:20;;;;;;;12.48;8.95;;;;;;;2.38;100.00;93780.75;4971476;28;20047;-81
2022/03/17 04:31:49;;;;;;;12.48;9.55;;;;;;;2.30;100.00;93783.22;4970379;28;20138;-80
2022/03/17 04:34:16;;;;;;;12.50;8.40;;;;;;;2.31;100.00;93794.97;4970386;28;20057;-81
2022/03/17 04:36:47;;;;;;;12.50;9.35;;;;;;;1.56;100.00;93700.47;4970742;28;20061;-85
2022/03/17 04:39:16;;;;;;;13.15;9.52;;;;;;;2.13;100.00;93790.69;4970530;28;20053;-84
2022/03/17 04:41:48;;;;;;;13.07;8.98;;;;;;;1.38;100.00;93693.63;4970656;28;20517;-84
2022/03/17 04:44:17;;;;;;;36.80;18.75;;;;;;;2.16;100.00;93822.53;4971792;28;20058;-85
2022/03/17 04:46:52;;;;;;;32.95;18.98;;;;;;;1.55;100.00;93739.38;4974700;28;20065;-84
2022/03/17 04:49:23;;;;;;;14.73;10.98;;;;;;;1.58;100.00;93766.97;4974118;28;21058;-84
2022/03/17 04:51:51;;;;;;;14.60;10.60;;;;;;;2.02;100.00;93821.25;4974712;28;20078;-83
2022/03/17 04:54:17;;;;;;;15.57;10.20;;;;;;;1.36;100.00;93756.25;4974304;28;20113;-83
2022/03/17 04:56:44;;;;;;;16.23;11.27;;;;;;;1.80;100.00;93828.31;4974500;28;20087;-84
2022/03/17 04:59:12;;;;;;;16.48;12.48;;;;;;;1.82;100.00;93819.66;4974616;28;20515;-83
2022/03/17 05:01:39;;;;;;;14.88;10.85;;;;;;;1.58;100.00;93798.13;4974334;28;20130;-83
2022/03/17 05:04:07;;;;;;;17.70;12.35;;;;;;;1.78;100.00;93841.13;4974521;28;20086;-83
2022/03/17 05:06:35;;;;;;;18.60;12.70;;;;;;;1.34;100.00;93778.38;4974355;28;20141;-83
2022/03/17 05:09:02;;;;;;;14.38;10.68;;;;;;;1.37;100.00;93775.56;4974097;28;20065;-83
2022/03/17 05:11:29;;;;;;;15.93;11.52;;;;;;;1.87;100.00;93852.94;4974295;28;20443;-83
2022/03/17 05:13:56;;;;;;;14.88;10.45;;;;;;;1.93;100.00;93853.31;4966209;28;20055;-83
2022/03/17 05:16:23;;;;;;;15.70;11.25;;;;;;;1.22;100.00;93765.09;4973765;28;20059;-83
2022/03/17 05:18:52;;;;;;;19.70;13.65;;;;;;;1.44;100.00;93803.66;4973883;28;20069;-83
2022/03/17 05:21:22;;;;;;;19.90;13.85;;;;;;;1.88;100.00;93861.34;4974301;28;20055;-83
2022/03/17 05:23:51;;;;;;;17.55;12.40;;;;;;;1.48;100.00;93796.59;4973815;28;20046;-84
2022/03/17 05:26:23;;;;;;;17.67;12.25;;;;;;;1.42;100.00;93806.31;4974274;28;20058;-84
2022/03/17 05:28:50;;;;;;;15.38;10.55;;;;;;;1.97;100.00;93859.69;4973823;28;20137;-84
2022/03/17 05:31:18;;;;;;;18.40;13.20;;;;;;;1.29;100.00;93790.66;4974158;28;20043;-83
2022/03/17 05:33:47;;;;;;;23.30;16.02;;;;;;;1.75;100.00;93843.13;4974047;28;20059;-83
2022/03/17 05:36:20;;;;;;;17.48;12.85;;;;;;;1.28;100.00;93811.81;4974234;28;20059;-84
2022/03/17 05:38:58;;;;;;;16.85;12.60;;;;;;;1.21;100.00;93796.41;4973798;28;20081;-84
2022/03/17 05:41:34;;;;;;;17.45;12.48;;;;;;;1.12;100.00;93799.75;4979925;28;20046;-85
2022/03/17 05:44:09;;;;;;;23.33;15.20;;;;;;;1.09;100.00;93805.88;4984461;28;20058;-84
2022/03/17 05:46:40;;;;;;;23.25;15.23;;;;;;;1.31;100.00;93882.44;4992543;28;20505;-83
2022/03/17 05:49:07;;;;;;;17.52;12.50;;;;;;;1.30;100.00;93871.50;4992975;28;20047;-82
2022/03/17 05:51:35;;;;;;;16.10;11.88;;;;;;;1.28;100.00;93885.22;4993343;28;20130;-83
2022/03/17 05:54:03;;;;;;;22.27;14.77;;;;;;;1.27;100.00;93873.50;4993059;28;20064;-83
2022/03/17 05:56:30;;;;;;;50.35;26.30;;;;;;;0.98;100.00;93832.16;4991845;28;20618;-83
2022/03/17 05:58:58;;;;;;;25.30;15.77;;;;;;;1.34;100.00;93879.63;4992942;28;20053;-84
2022/03/17 06:01:25;;;;;;;14.00;10.90;;;;;;;1.15;100.00;93880.47;4992949;28;20050;-83
2022/03/17 06:03:51;;;;;;;15.32;11.05;;;;;;;0.76;100.00;93828.16;4992749;28;20062;-82
2022/03/17 06:06:18;;;;;;;15.20;10.70;;;;;;;0.58;100.00;93800.22;4993095;28;20051;-82
2022/03/17 06:08:45;;;;;;;14.20;9.80;;;;;;;0.75;100.00;93842.53;4992726;28;20052;-82
2022/03/17 06:11:15;;;;;;;19.90;12.20;;;;;;;0.39;100.00;93797.56;4992854;28;20054;-83
2022/03/17 06:13:44;;;;;;;16.73;10.57;;;;;;;0.71;100.00;93850.50;4992046;28;20105;-83
2022/03/17 06:16:11;;;;;;;16.65;10.98;;;;;;;0.82;100.00;93887.53;4992632;28;20085;-82
2022/03/17 06:18:39;;;;;;;24.77;15.05;;;;;;;0.51;100.00;93842.94;4992184;28;20058;-82
2022/03/17 06:21:07;;;;;;;14.50;10.43;;;;;;;0.51;100.00;93828.56;4992657;28;20058;-83
2022/03/17 06:23:34;;;;;;;15.15;10.27;;;;;;;0.44;100.00;93822.44;4992372;28;20740;-82
2022/03/17 06:26:01;;;;;;;16.02;10.65;;;;;;;0.44;100.00;93836.78;4992255;28;20137;-82
2022/03/17 06:28:31;;;;;;;13.90;9.50;;;;;;;0.80;100.00;93890.97;4992829;28;20070;-82
2022/03/17 06:30:58;;;;;;;11.55;9.43;;;;;;;0.74;100.00;93883.91;4984394;28;20074;-82
2022/03/17 06:33:25;;;;;;;12.80;9.20;;;;;;;0.42;100.00;93829.38;4992452;28;20054;-82
2022/03/17 06:35:52;;;;;;;12.52;9.00;;;;;;;0.89;100.00;93917.19;4992361;28;20452;-83
2022/03/17 06:38:19;;;;;;;14.50;10.27;;;;;;;0.75;100.00;93895.63;4992258;28;20065;-82
2022/03/17 06:40:46;;;;;;;14.25;10.00;;;;;;;0.95;100.00;93926.00;4992156;28;20149;-82
2022/03/17 06:43:14;;;;;;;13.65;9.38;;;;;;;0.14;100.00;93801.41;4992404;28;20054;-82
2022/03/17 06:45:43;;;;;;;12.27;8.73;;;;;;;0.91;100.00;93924.66;4992450;28;20068;-82
2022/03/17 06:48:10;;;;;;;9.95;7.63;;;;;;;0.93;100.00;93926.13;4992277;28;20065;-82
2022/03/17 06:50:37;;;;;;;10.20;7.72;;;;;;;0.63;100.00;93879.81;4991843;28;20057;-81
2022/03/17 06:53:04;;;;;;;9.25;7.13;;;;;;;0.85;100.00;93926.00;4991304;28;20061;-80
2022/03/17 06:55:33;;;;;;;10.25;8.07;;;;;;;0.42;100.00;93852.09;4991219;28;20046;-81
2022/03/17 06:58:00;;;;;;;10.57;8.30;;;;;;;0.92;100.00;93919.47;4991014;28;20062;-81
2022/03/17 07:00:27;;;;;;;12.90;8.98;;;;;;;0.65;100.00;93877.16;4990982;28;20050;-82
2022/03/17 07:02:55;;;;;;;10.15;7.90;;;;;;;0.60;100.00;93851.47;4990917;28;20062;-84
2022/03/17 07:05:22;;;;;;;13.25;9.70;;;;;;;1.02;100.00;93921.22;4991108;28;20050;-82
2022/03/17 07:07:49;;;;;;;10.60;8.18;;;;;;;1.05;100.00;93926.81;4990761;28;20057;-82
2022/03/17 07:10:16;;;;;;;12.75;8.98;;;;;;;1.22;100.00;93951.56;4990392;28;21101;-82
2022/03/17 07:12:43;;;;;;;11.43;8.10;;;;;;;1.42;100.00;93958.22;4990584;28;20113;-82
2022/03/17 07:15:12;;;;;;;11.82;8.75;;;;;;;1.54;100.00;93961.41;4991063;28;20050;-82
2022/03/17 07:17:40;;;;;;;11.68;8.57;;;;;;;1.30;100.00;93939.84;4990702;28;20358;-82
2022/03/17 07:20:11;;;;;;;11.57;7.85;;;;;;;0.79;100.00;93884.31;4990857;28;20253;-82
2022/03/17 07:22:39;;;;;;;21.42;12.77;;;;;;;1.30;100.00;93962.63;4973519;28;20046;-82
2022/03/17 07:25:07;;;;;;;22.17;13.82;;;;;;;1.36;100.00;93948.63;4990819;28;20058;-82
2022/03/17 07:27:40;;;;;;;14.95;10.10;;;;;;;1.23;100.00;93955.69;4991190;28;20388;-82
2022/03/17 07:30:08;;;;;;;15.65;11.63;;;;;;;1.37;100.00;93962.88;4991246;28;20065;-82
2022/03/17 07:32:35;;;;;;;18.70;13.18;;;;;;;1.28;100.00;93949.31;4990909;28;20108;-81
2022/03/17 07:35:02;;;;;;;24.40;16.45;;;;;;;0.95;100.00;93932.78;4990461;28;20084;-81
2022/03/17 07:37:30;;;;;;;14.10;9.52;;;;;;;1.03;100.00;93945.59;4990539;28;20415;-81
2022/03/17 07:39:57;;;;;;;12.00;8.35;;;;;;;1.05;100.00;93939.47;4990514;28;20101;-83
2022/03/17 07:42:24;;;;;;;19.90;13.75;;;;;;;1.03;100.00;93936.25;4990859;28;20077;-81
2022/03/17 07:44:50;;;;;;;8.75;6.85;;;;;;;1.40;100.00;93979.53;4990876;28;20062;-82
2022/03/17 07:47:17;;;;;;;9.50;7.07;;;;;;;1.04;100.00;93954.75;4986967;28;20157;-81
2022/03/17 07:49:44;;;;;;;54.30;29.55;;;;;;;1.20;100.00;93951.69;4969400;28;20047;-81
2022/03/17 07:52:11;;;;;;;92.32;41.65;;;;;;;1.17;100.00;93942.63;4970075;28;20063;-81
2022/03/17 07:54:39;;;;;;;14.73;10.45;;;;;;;1.02;100.00;93936.41;4970694;28;20047;-82
2022/03/17 07:57:08;;;;;;;18.55;14.27;;;;;;;1.26;100.00;93973.16;4971120;28;20484;-82
2022/03/17 07:59:35;;;;;;;9.93;7.63;;;;;;;0.90;100.00;93946.66;4971303;28;20043;-81
2022/03/17 08:02:04;;;;;;;12.18;9.45;;;;;;;1.27;100.00;93978.09;4970785;28;20411;-82
2022/03/17 08:04:32;;;;;;;12.75;11.00;;;;;;;1.06;100.00;93991.66;4970748;28;20138;-81
2022/03/17 08:07:00;;;;;;;18.15;13.80;;;;;;;0.79;100.00;93946.78;4970555;28;20124;-81
2022/03/17 08:09:27;;;;;;;21.92;17.73;;;;;;;0.74;100.00;93952.19;4970194;28;20058;-81
2022/03/17 08:11:56;;;;;;;14.35;11.73;;;;;;;0.85;100.00;93985.91;4970697;28;20050;-82
2022/03/17 08:14:22;;;;;;;14.55;9.98;;;;;;;0.93;100.00;93984.31;4970553;28;20058;-81
2022/03/17 08:16:50;;;;;;;12.55;9.75;;;;;;;0.98;100.00;93966.22;4970563;28;20051;-81
2022/03/17 08:19:17;;;;;;;11.15;8.80;;;;;;;0.71;100.00;93947.41;4969718;28;20062;-81
2022/03/17 08:21:43;;;;;;;14.18;11.05;;;;;;;1.08;100.00;93980.59;4970167;28;20047;-82
2022/03/17 08:24:10;;;;;;;22.52;14.93;;;;;;;1.13;100.00;93975.94;4970128;28;20492;-82
2022/03/17 08:26:38;;;;;;;15.35;10.35;;;;;;;0.74;100.00;93908.44;4970655;28;20054;-82
2022/03/17 08:29:06;;;;;;;20.88;13.57;;;;;;;1.01;100.00;93960.88;4970885;28;20564;-82
2022/03/17 08:31:34;;;;;;;16.27;13.43;;;;;;;1.12;100.00;93992.88;4970822;28;20065;-82
2022/03/17 08:34:01;;;;;;;16.27;12.55;;;;;;;0.59;100.00;93906.28;4970695;28;20169;-82
2022/03/17 08:36:28;;;;;;;13.50;9.85;;;;;;;0.70;100.00;93939.94;4970818;28;20055;-82
2022/03/17 08:38:55;;;;;;;14.18;11.50;;;;;;;1.18;100.00;93964.50;4970078;28;20062;-82
2022/03/17 08:41:22;;;;;;;12.63;9.45;;;;;;;1.03;100.00;93958.22;4970414;28;20054;-81
2022/03/17 08:43:51;;;;;;;13.80;10.45;;;;;;;1.15;100.00;93969.81;4970792;28;20053;-82
2022/03/17 08:49:23;;;;;;;;;;;;;;;1.36;100.00;93993.41;4970888;28;20054;-82
2022/03/17 08:51:52;;;;;;;12.43;9.45;;;;;;;1.50;100.00;94000.59;4970904;28;19926;-82
2022/03/17 08:54:20;;;;;;;14.32;10.85;;;;;;;1.24;100.00;94013.78;4970882;28;20055;-81
2022/03/17 08:56:46;;;;;;;14.90;12.00;;;;;;;1.24;100.00;94010.47;4969807;28;20051;-81
2022/03/17 08:59:13;;;;;;;15.07;11.82;;;;;;;1.14;100.00;93998.59;4970257;28;20134;-82
2022/03/17 09:01:42;;;;;;;16.40;12.07;;;;;;;0.96;100.00;93962.22;4969850;28;20054;-82
2022/03/17 09:04:10;;;;;;;15.02;10.13;;;;;;;1.19;100.00;93978.75;4970104;28;20058;-82
2022/03/17 09:06:38;;;;;;;13.27;10.43;;;;;;;1.56;100.00;94024.56;4969874;28;20054;-82
2022/03/17 09:09:05;;;;;;;14.77;10.07;;;;;;;1.61;100.00;94022.44;4970648;28;20061;-81
2022/03/17 09:11:34;;;;;;;16.55;12.68;;;;;;;1.41;100.00;94006.44;4970409;28;20106;-81
2022/03/17 09:14:01;;;;;;;37.35;23.98;;;;;;;1.45;100.00;94033.91;4970486;28;20047;-82
2022/03/17 09:16:28;;;;;;;16.17;12.18;;;;;;;0.89;100.00;93957.66;4970304;28;20062;-81
2022/03/17 09:18:57;;;;;;;24.25;16.58;;;;;;;1.70;100.00;94029.25;4970175;28;20057;-81
2022/03/17 09:21:25;;;;;;;20.00;14.15;;;;;;;1.60;100.00;94036.84;4969854;28;20055;-82
2022/03/17 09:23:52;;;;;;;15.75;12.05;;;;;;;1.53;100.00;94030.69;4973082;28;20050;-81
2022/03/17 09:26:19;;;;;;;13.65;10.55;;;;;;;1.68;100.00;94048.03;4987205;28;20046;-81
2022/03/17 09:28:46;;;;;;;17.33;13.73;;;;;;;1.67;100.00;94054.81;4988138;28;20047;-81
2022/03/17 09:31:13;;;;;;;19.38;13.05;;;;;;;1.64;100.00;94052.56;4992201;28;20050;-81
2022/03/17 09:33:40;;;;;;;18.13;14.73;;;;;;;1.52;100.00;94044.31;4992771;28;20042;-81
2022/03/17 09:36:09;;;;;;;18.38;14.35;;;;;;;1.70;100.00;94062.16;4992374;28;20504;-81
2022/03/17 09:38:36;;;;;;;18.20;14.00;;;;;;;1.53;100.00;94056.03;4992595;28;20435;-81
2022/03/17 09:41:23;;;;;;;18.67;14.43;;;;;;;1.42;100.00;94072.16;4993286;28;20054;-81
2022/03/17 09:43:50;;;;;;;19.77;15.75;;;;;;;1.31;100.00;94031.78;4991367;28;20053;-81
2022/03/17 09:46:21;;;;;;;23.95;17.15;;;;;;;1.36;100.00;94049.09;4991082;28;20061;-82
2022/03/17 09:48:52;;;;;;;22.75;17.77;;;;;;;1.14;100.00;94053.44;4972754;28;20097;-82
2022/03/17 09:51:23;;;;;;;17.98;13.90;;;;;;;1.15;100.00;94053.31;4972877;28;20426;-83
2022/03/17 09:53:53;;;;;;;18.00;14.02;;;;;;;1.18;100.00;94044.69;4973006;28;20051;-83
2022/03/17 09:56:20;;;;;;;20.25;14.90;;;;;;;1.28;100.00;94037.91;4973800;28;20416;-83
2022/03/17 09:58:47;;;;;;;17.25;14.27;;;;;;;1.04;100.00;94006.19;4973428;28;20105;-83
2022/03/17 10:01:16;;;;;;;20.13;15.55;;;;;;;1.35;100.00;94050.84;4973181;28;20126;-83
2022/03/17 10:03:45;;;;;;;17.60;13.52;;;;;;;0.78;100.00;93993.19;4973093;28;20122;-84
2022/03/17 10:06:14;;;;;;;53.28;28.63;;;;;;;0.80;100.00;94014.13;4985541;28;20038;-84
2022/03/17 10:08:45;;;;;;;18.45;13.60;;;;;;;0.85;100.00;94001.06;4992488;28;20384;-84
2022/03/17 10:11:15;;;;;;;19.73;15.50;;;;;;;1.53;100.00;94067.91;4992331;28;20526;-83
2022/03/17 10:13:45;;;;;;;14.90;11.75;;;;;;;1.33;100.00;94056.03;4999521;28;20129;-84
2022/03/17 10:16:16;;;;;;;27.80;20.88;;;;;;;0.96;100.00;93979.94;5008250;28;20064;-84
2022/03/17 10:18:43;;;;;;;13.90;10.95;;;;;;;1.09;100.00;93979.66;5010979;28;20054;-85
2022/03/17 10:21:11;;;;;;;12.70;10.63;;;;;;;1.03;100.00;93978.47;5011612;28;20137;-83
2022/03/17 10:23:48;;;;;;;16.70;11.35;;;;;;;1.72;100.00;94045.09;5011917;28;20462;-83
2022/03/17 10:26:32;;;;;;;15.75;12.60;;;;;;;1.99;100.00;94073.22;5011990;28;20056;-83
2022/03/17 10:29:09;;;;;;;12.00;9.35;;;;;;;1.44;100.00;94013.78;5012188;28;20053;-84
2022/03/17 10:32:09;;;;;;;15.13;11.23;;;;;;;1.57;100.00;94014.31;5010231;28;20747;-85
2022/03/17 10:34:56;;;;;;;12.98;9.73;;;;;;;1.71;100.00;94028.31;4950775;29;20075;-85
2022/03/17 10:37:25;;;;;;;13.88;10.55;;;;;;;1.55;100.00;93983.28;5007478;28;20058;-84
2022/03/17 10:39:55;;;;;;;15.45;11.18;;;;;;;2.08;100.00;94036.91;5011979;28;20414;-84
2022/03/17 10:42:23;;;;;;;15.55;10.95;;;;;;;2.63;100.00;94076.00;5011219;28;20483;-84
2022/03/17 10:44:51;;;;;;;12.77;9.85;;;;;;;2.53;100.00;94053.22;5011827;28;20056;-84
2022/03/17 10:47:26;;;;;;;16.48;11.00;;;;;;;2.72;100.00;94081.19;5011582;28;20053;-84
2022/03/17 10:50:07;;;;;;;11.90;9.63;;;;;;;2.17;100.00;94019.31;5011473;28;20112;-84
2022/03/17 10:52:47;;;;;;;17.98;15.45;;;;;;;2.69;100.00;94078.91;5011034;28;20065;-84
2022/03/17 10:55:19;;;;;;;22.23;15.88;;;;;;;2.13;100.00;94011.97;5011317;28;20100;-84
2022/03/17 10:57:46;;;;;;;48.08;34.00;;;;;;;2.40;100.00;94057.78;5011467;28;20050;-85
2022/03/17 11:00:22;;;;;;;22.30;17.60;;;;;;;2.71;100.00;94074.50;5011017;28;20050;-85
2022/03/17 11:02:56;;;;;;;25.25;20.65;;;;;;;2.11;100.00;94003.69;5010681;28;20064;-85
2022/03/17 11:05:25;;;;;;;15.52;12.50;;;;;;;2.89;100.00;94082.19;5010922;28;20116;-85
2022/03/17 11:07:54;;;;;;;18.02;13.40;;;;;;;2.39;100.00;93991.06;4993618;28;20045;-84
2022/03/17 11:10:23;;;;;;;25.95;20.10;;;;;;;2.69;100.00;94036.59;5011315;28;20077;-84
2022/03/17 11:12:51;;;;;;;23.90;18.80;;;;;;;2.99;100.00;94082.94;5011180;28;20124;-84
2022/03/17 11:15:28;;;;;;;16.77;13.02;;;;;;;2.71;100.00;94052.47;5011131;28;20049;-84
2022/03/17 11:18:02;;;;;;;16.17;11.63;;;;;;;2.08;100.00;94016.63;5010791;28;20058;-84
2022/03/17 11:20:30;;;;;;;16.27;13.10;;;;;;;2.24;100.00;94056.63;5010715;28;20065;-84
2022/03/17 11:23:06;;;;;;;20.08;13.15;;;;;;;2.00;100.00;94019.06;4999582;28;20049;-84
2022/03/17 11:25:35;;;;;;;19.25;13.95;;;;;;;2.17;100.00;94068.25;5009217;28;20049;-83
2022/03/17 11:28:03;;;;;;;24.40;16.83;;;;;;;1.73;100.00;94008.69;5010709;28;20076;-84
2022/03/17 11:30:32;;;;;;;23.10;17.52;;;;;;;1.93;100.00;94046.69;5010961;28;20136;-84
2022/03/17 11:33:01;;;;;;;21.17;17.08;;;;;;;1.62;100.00;94025.78;5010584;28;20057;-84
2022/03/17 11:35:32;;;;;;;21.98;17.80;;;;;;;2.03;100.00;94066.16;5010119;28;20053;-83
2022/03/17 11:38:18;;;;;;;21.20;15.60;;;;;;;1.97;100.00;94037.06;5010661;28;20042;-84
2022/03/17 11:41:14;;;;;;;22.80;17.58;;;;;;;2.22;100.00;94075.47;5010525;28;20077;-84